createdAt,value
2023-03-15T00:03:08.542Z,3.50
2023-03-15T00:07:13.325Z,3.40
2023-03-15T00:11:16.384Z,3.40
2023-03-15T00:15:18.292Z,3.40
2023-03-15T00:19:20.088Z,3.40
2023-03-15T00:23:21.965Z,3.40
2023-03-15T00:27:24.851Z,3.40
2023-03-15T00:31:26.701Z,3.50
2023-03-15T00:35:28.503Z,3.50
2023-03-15T00:39:30.313Z,3.50
2023-03-15T00:43:32.301Z,3.60
2023-03-15T00:47:34.221Z,3.70
2023-03-15T00:51:37.506Z,3.60
2023-03-15T00:55:39.286Z,3.60
2023-03-15T00:59:41.152Z,3.50
2023-03-15T01:03:43.394Z,3.50
2023-03-15T01:07:45.692Z,3.40
2023-03-15T01:11:47.505Z,3.40
2023-03-15T01:15:49.388Z,3.40
2023-03-15T01:19:51.729Z,3.40
2023-03-15T01:23:53.867Z,3.30
2023-03-15T01:27:55.692Z,3.30
2023-03-15T01:31:57.476Z,3.20
2023-03-15T01:36:04.555Z,3.20
2023-03-15T01:40:09.676Z,3.30
2023-03-15T01:44:15.914Z,3.30
2023-03-15T01:48:17.797Z,3.40
2023-03-15T01:52:23.271Z,3.30
2023-03-15T01:56:25.310Z,3.30
2023-03-15T02:00:27.689Z,3.30
2023-03-15T02:04:36.474Z,3.30
2023-03-15T02:08:41.600Z,3.20
2023-03-15T02:12:46.543Z,3.20
2023-03-15T02:16:49.034Z,3.20
2023-03-15T02:21:29.755Z,3.10
2023-03-15T02:25:55.267Z,3.10
2023-03-15T02:29:58.536Z,3.10
2023-03-15T02:34:00.353Z,3.10
2023-03-15T02:38:02.731Z,3.10
2023-03-15T02:42:04.755Z,3.10
2023-03-15T02:46:06.896Z,3.10
2023-03-15T02:50:09.573Z,3.10
2023-03-15T02:54:11.425Z,3.10
2023-03-15T02:58:13.235Z,3.00
2023-03-15T03:02:15.277Z,3.00
2023-03-15T03:06:18.153Z,2.90
2023-03-15T03:10:33.431Z,2.90
2023-03-15T03:14:35.326Z,2.90
2023-03-15T03:18:43.449Z,2.90
2023-03-15T03:22:52.421Z,2.80
2023-03-15T03:26:58.053Z,2.80
2023-03-15T03:31:00.508Z,2.80
2023-03-15T03:35:02.364Z,2.70
2023-03-15T03:39:07.055Z,2.70
2023-03-15T03:43:09.271Z,2.60
2023-03-15T03:47:11.373Z,2.50
2023-03-15T03:51:13.497Z,2.50
2023-03-15T03:55:20.623Z,2.40
2023-03-15T03:59:22.412Z,2.40
2023-03-15T04:03:27.363Z,2.30
2023-03-15T04:07:29.238Z,2.30
2023-03-15T04:11:31.132Z,2.30
2023-03-15T04:15:32.910Z,2.30
2023-03-15T04:19:35.119Z,2.30
2023-03-15T04:23:38.717Z,2.30
2023-03-15T04:27:40.510Z,2.30
2023-03-15T04:31:43.425Z,2.30
2023-03-15T04:35:45.779Z,2.30
2023-03-15T04:39:47.599Z,2.30
2023-03-15T04:43:49.405Z,2.30
2023-03-15T04:47:51.995Z,2.30
2023-03-15T04:51:53.935Z,2.30
2023-03-15T04:55:58.790Z,2.30
2023-03-15T05:00:00.840Z,2.30
2023-03-15T05:04:05.325Z,2.30
2023-03-15T05:08:09.550Z,2.30
2023-03-15T05:12:12.124Z,2.30
2023-03-15T05:16:15.217Z,2.20
2023-03-15T05:20:17.130Z,2.30
2023-03-15T05:24:18.944Z,2.30
2023-03-15T05:28:24.335Z,2.20
2023-03-15T05:32:26.996Z,2.30
2023-03-15T05:36:29.132Z,2.30
2023-03-15T05:40:38.543Z,2.30
2023-03-15T05:44:40.760Z,2.40
2023-03-15T05:48:42.788Z,2.40
2023-03-15T05:52:44.651Z,2.60
2023-03-15T05:56:51.189Z,3.00
2023-03-15T06:00:53.151Z,3.50
2023-03-15T06:04:55.043Z,4.10
2023-03-15T06:08:59.114Z,4.60
2023-03-15T06:13:01.146Z,5.20
2023-03-15T06:17:02.940Z,5.80
2023-03-15T06:21:04.676Z,6.10
2023-03-15T06:25:11.783Z,6.50
2023-03-15T06:29:15.960Z,7.00
2023-03-15T06:33:18.040Z,7.00
2023-03-15T06:37:34.254Z,7.30
2023-03-15T06:41:39.269Z,7.30
2023-03-15T06:45:41.328Z,7.70
2023-03-15T06:49:43.249Z,8.00
2023-03-15T06:53:45.092Z,8.50
2023-03-15T06:57:47.002Z,8.60
2023-03-15T07:01:50.425Z,8.90
2023-03-15T07:05:54.723Z,9.00
2023-03-15T07:09:56.548Z,9.20
2023-03-15T07:13:58.651Z,9.00
2023-03-15T07:18:00.994Z,9.10
2023-03-15T07:22:02.983Z,9.20
2023-03-15T07:26:05.163Z,9.20
2023-03-15T07:30:09.533Z,9.50
2023-03-15T07:34:11.414Z,9.80
2023-03-15T07:38:13.276Z,10.20
2023-03-15T07:42:15.577Z,10.10
2023-03-15T07:46:17.431Z,9.80
2023-03-15T07:50:19.323Z,9.90
2023-03-15T07:54:21.086Z,10.20
2023-03-15T07:58:23.110Z,10.20
2023-03-15T08:02:24.899Z,10.20
2023-03-15T08:06:26.699Z,10.40
2023-03-15T08:10:30.860Z,10.10
2023-03-15T08:14:32.765Z,10.50
2023-03-15T08:18:34.471Z,10.70
2023-03-15T08:22:38.160Z,10.60
2023-03-15T08:26:40.267Z,10.30
2023-03-15T08:30:42.521Z,9.80
2023-03-15T08:34:45.083Z,9.60
2023-03-15T08:38:46.929Z,9.40
2023-03-15T08:42:49.176Z,9.20
2023-03-15T08:46:50.940Z,8.90
2023-03-15T08:50:52.749Z,8.40
2023-03-15T08:54:54.557Z,7.90
2023-03-15T08:58:56.300Z,7.60
2023-03-15T09:02:58.035Z,7.20
2023-03-15T09:07:00.151Z,6.80
2023-03-15T09:11:02.015Z,6.50
2023-03-15T09:15:05.546Z,6.70
2023-03-15T09:19:08.339Z,6.90
2023-03-15T09:23:10.528Z,7.10
2023-03-15T09:27:12.354Z,7.30
2023-03-15T09:31:14.232Z,7.50
2023-03-15T09:35:19.628Z,7.70
2023-03-15T09:39:21.807Z,8.00
2023-03-15T09:44:01.926Z,7.80
2023-03-15T09:48:16.282Z,7.80
2023-03-15T09:52:41.128Z,7.70
2023-03-15T09:57:06.909Z,7.40
2023-03-15T10:01:11.340Z,7.20
2023-03-15T10:05:43.777Z,7.20
2023-03-15T10:09:45.742Z,7.10
2023-03-15T10:14:12.365Z,7.10
2023-03-15T10:19:12.296Z,7.10
2023-03-15T10:23:23.539Z,7.10
2023-03-15T10:27:59.409Z,7.20
2023-03-15T10:32:01.541Z,7.10
2023-03-15T10:36:19.015Z,6.90
2023-03-15T10:40:49.647Z,6.90
2023-03-15T10:44:51.412Z,6.80
2023-03-15T10:49:01.685Z,6.80
2023-03-15T10:53:10.417Z,6.90
2023-03-15T10:57:17.728Z,7.10
2023-03-15T11:01:34.709Z,7.30
2023-03-15T11:05:47.465Z,7.50
2023-03-15T11:09:54.577Z,7.70
2023-03-15T11:14:03.285Z,7.80
2023-03-15T11:18:16.850Z,7.90
2023-03-15T11:22:18.729Z,8.00
2023-03-15T11:26:33.363Z,7.90
2023-03-15T11:30:37.651Z,8.00
2023-03-15T11:34:53.837Z,8.00
2023-03-15T11:38:55.729Z,7.80
2023-03-15T11:43:27.975Z,7.60
2023-03-15T11:47:57.161Z,7.80
2023-03-15T11:51:58.992Z,7.80
2023-03-15T11:56:46.866Z,7.80
2023-03-15T12:00:51.256Z,8.00
2023-03-15T12:04:54.542Z,8.10
2023-03-15T12:08:56.400Z,8.30
2023-03-15T12:13:05.979Z,8.50
2023-03-15T12:17:37.718Z,8.50
2023-03-15T12:21:41.542Z,8.60
2023-03-15T12:25:57.031Z,8.60
2023-03-15T12:30:00.420Z,8.50
2023-03-15T12:34:03.451Z,8.50
2023-03-15T12:38:12.978Z,8.60
2023-03-15T12:42:33.726Z,8.80
2023-03-15T12:46:41.517Z,8.70
2023-03-15T12:50:52.479Z,8.50
2023-03-15T12:55:01.743Z,8.40
2023-03-15T12:59:23.605Z,8.30
2023-03-15T13:03:26.651Z,8.30
2023-03-15T13:07:51.088Z,8.20
2023-03-15T13:12:01.335Z,8.10
2023-03-15T13:16:27.967Z,8.10
2023-03-15T13:20:52.265Z,8.30
2023-03-15T13:25:02.440Z,8.20
2023-03-15T13:29:29.496Z,8.30
2023-03-15T13:33:31.799Z,8.60
2023-03-15T13:37:34.606Z,8.80
2023-03-15T13:41:38.544Z,8.90
2023-03-15T13:45:43.617Z,8.90
2023-03-15T13:49:45.413Z,8.90
2023-03-15T13:53:50.235Z,9.20
2023-03-15T13:57:56.881Z,9.30
2023-03-15T14:02:00.902Z,9.40
2023-03-15T14:06:04.034Z,9.50
2023-03-15T14:10:34.564Z,9.50
2023-03-15T14:14:37.553Z,9.40
2023-03-15T14:18:41.848Z,8.90
2023-03-15T14:22:46.709Z,8.80
2023-03-15T14:26:59.058Z,8.60
2023-03-15T14:31:02.459Z,8.30
2023-03-15T14:35:46.354Z,8.30
2023-03-15T14:39:48.326Z,8.60
2023-03-15T14:43:51.561Z,8.50
2023-03-15T14:48:35.767Z,8.60
2023-03-15T14:52:38.442Z,8.70
2023-03-15T14:56:44.019Z,8.60
2023-03-15T15:00:56.299Z,8.30
2023-03-15T15:04:58.708Z,8.30
2023-03-15T15:09:01.514Z,8.30
2023-03-15T15:13:06.697Z,8.30
2023-03-15T15:17:09.566Z,8.30
2023-03-15T15:21:14.863Z,8.30
2023-03-15T15:25:21.968Z,8.30
2023-03-15T15:29:24.403Z,8.30
2023-03-15T15:33:26.332Z,8.20
2023-03-15T15:37:29.689Z,8.10
2023-03-15T15:41:31.898Z,8.10
2023-03-15T15:45:34.649Z,8.10
2023-03-15T15:49:36.479Z,8.00
2023-03-15T15:53:38.295Z,7.90
2023-03-15T15:57:40.228Z,7.90
2023-03-15T16:01:59.361Z,7.90
2023-03-15T16:06:01.709Z,7.70
2023-03-15T16:10:04.443Z,7.60
2023-03-15T16:14:06.392Z,7.50
2023-03-15T16:18:14.364Z,7.30
2023-03-15T16:22:17.068Z,7.20
2023-03-15T16:26:43.377Z,7.00
2023-03-15T16:30:58.989Z,6.80
2023-03-15T16:35:01.460Z,6.80
2023-03-15T16:39:03.829Z,6.70
2023-03-15T16:43:08.704Z,6.50
2023-03-15T16:47:10.801Z,6.40
2023-03-15T16:51:16.100Z,6.30
2023-03-15T16:55:25.927Z,6.20
2023-03-15T16:59:28.343Z,6.10
2023-03-15T17:03:32.341Z,6.00
2023-03-15T17:07:36.546Z,5.90
2023-03-15T17:11:39.758Z,5.90
2023-03-15T17:15:41.775Z,5.80
2023-03-15T17:19:43.952Z,5.60
2023-03-15T17:23:49.591Z,5.60
2023-03-15T17:27:51.515Z,5.50
2023-03-15T17:31:53.515Z,5.40
2023-03-15T17:35:57.340Z,5.30
2023-03-15T17:39:59.352Z,5.20
2023-03-15T17:44:01.855Z,5.10
2023-03-15T17:48:04.463Z,5.10
2023-03-15T17:52:19.487Z,5.00
2023-03-15T17:56:24.327Z,4.90
2023-03-15T18:00:26.403Z,4.80
2023-03-15T18:04:29.358Z,4.80
2023-03-15T18:08:34.353Z,4.70
2023-03-15T18:12:39.869Z,4.60
2023-03-15T18:16:42.935Z,4.50
2023-03-15T18:20:54.465Z,4.40
2023-03-15T18:24:56.506Z,4.40
2023-03-15T18:28:58.751Z,4.40
2023-03-15T18:33:09.820Z,4.40
2023-03-15T18:37:13.471Z,4.30
2023-03-15T18:41:25.721Z,4.30
2023-03-15T18:45:33.150Z,4.20
2023-03-15T18:49:38.698Z,4.20
2023-03-15T18:53:49.876Z,4.10
2023-03-15T18:57:52.716Z,4.10
2023-03-15T19:01:54.748Z,4.00
2023-03-15T19:06:08.076Z,4.00
2023-03-15T19:10:13.709Z,3.90
2023-03-15T19:14:18.528Z,3.90
2023-03-15T19:18:23.132Z,3.80
2023-03-15T19:22:26.589Z,3.70
2023-03-15T19:26:28.414Z,3.70
2023-03-15T19:30:31.974Z,3.60
2023-03-15T19:34:37.147Z,3.60
2023-03-15T19:38:39.979Z,3.40
2023-03-15T19:42:46.447Z,3.40
2023-03-15T19:46:48.686Z,3.40
2023-03-15T19:50:50.932Z,3.30
2023-03-15T19:55:07.305Z,3.30
2023-03-15T19:59:13.008Z,3.30
2023-03-15T20:03:14.913Z,3.20
2023-03-15T20:07:17.049Z,3.20
2023-03-15T20:11:25.226Z,3.20
2023-03-15T20:15:29.318Z,3.10
2023-03-15T20:19:32.942Z,3.10
2023-03-15T20:23:35.880Z,3.10
2023-03-15T20:27:37.945Z,3.10
2023-03-15T20:31:39.972Z,3.10
2023-03-15T20:35:42.025Z,3.10
2023-03-15T20:39:43.964Z,3.10
2023-03-15T20:43:46.573Z,3.00
2023-03-15T20:47:48.956Z,3.00
2023-03-15T20:51:51.121Z,3.00
2023-03-15T20:55:54.162Z,2.90
2023-03-15T20:59:55.956Z,2.90
2023-03-15T21:03:58.049Z,2.90
2023-03-15T21:08:00.012Z,2.90
2023-03-15T21:12:01.862Z,2.80
2023-03-15T21:16:05.283Z,2.80
2023-03-15T21:20:07.797Z,2.80
2023-03-15T21:24:12.338Z,2.80
2023-03-15T21:28:14.672Z,2.80
2023-03-15T21:32:17.134Z,2.70
2023-03-15T21:36:18.936Z,2.70
2023-03-15T21:40:20.802Z,2.60
2023-03-15T21:44:22.728Z,2.60
2023-03-15T21:48:24.626Z,2.50
2023-03-15T21:52:28.802Z,2.60
2023-03-15T21:56:31.798Z,2.50
2023-03-15T22:00:33.964Z,2.50
2023-03-15T22:04:35.759Z,2.50
2023-03-15T22:08:37.888Z,2.40
2023-03-15T22:12:39.841Z,2.40
2023-03-15T22:16:41.730Z,2.40
2023-03-15T22:20:44.617Z,2.40
2023-03-15T22:24:46.768Z,2.40
2023-03-15T22:28:49.052Z,2.40
2023-03-15T22:32:50.841Z,2.40
2023-03-15T22:36:53.056Z,2.40
2023-03-15T22:41:09.140Z,2.40
2023-03-15T22:45:11.295Z,2.30
2023-03-15T22:49:13.063Z,2.20
2023-03-15T22:53:14.871Z,2.10
2023-03-15T22:57:17.081Z,2.10
2023-03-15T23:01:19.650Z,2.10
2023-03-15T23:05:21.962Z,2.10
2023-03-15T23:09:23.763Z,2.00
2023-03-15T23:13:25.668Z,2.00
2023-03-15T23:17:27.471Z,1.90
2023-03-15T23:21:29.497Z,1.90
2023-03-15T23:25:31.311Z,1.80
2023-03-15T23:29:40.639Z,1.80
2023-03-15T23:33:49.041Z,1.80
2023-03-15T23:37:50.961Z,1.70
2023-03-15T23:41:52.769Z,1.70
2023-03-15T23:45:56.826Z,1.70
2023-03-15T23:49:58.615Z,1.60
2023-03-15T23:54:01.253Z,1.60
2023-03-15T23:58:06.735Z,1.60
